Rock Point, Arizona
Current Conditions -  °F | °C
As of 10:53 PM on Thursday 27 Nov 2014 (Local Time) from KGUP Reporting Station
Clear Clear  
Wind Chill: 30°   Ceiling: Unl
Heat Index: 30°   Visibility: 10mi
Dew Point:   Wind: 0mph
Humidity: 41%   Direction: NA
Pressure: 30.36"   Gusts: NA
Location:  36.15°N, 109.55°W
Report Text: KGUP 280553Z AUTO 00000KT 10SM CLR M01/M13 A3036 RMK AO2 SLP270 T10111128 10128 21028 56003
Loading
Personal Weather Stations






























Interactive Weather Map New forecast layout! Learn more

10-Day Weather Forecast

Advertisements
Track Severe Weather on mobile